Time,TemperatureF,DewpointF,PressureIn,WindDirection,WindDirectionDegrees,WindSpeedMPH,WindSpeedGustMPH,Humidity,HourlyPrecipIn,Conditions,Clouds,dailyrainin,SolarRadiationWatts/m^2,SoftwareType,DateUTC
2013-08-28 12:14:00,84.0,66.0,-100.00,ESE,113,3.0,8.0,55,0.00,,,0.00,603.000000,,2013-08-28 17:14:00,
2013-08-28 12:52:00,84.0,63.0,-100.00,East,96,2.0,9.0,50,0.00,,,0.00,398.000000,,2013-08-28 17:52:00,
2013-08-28 13:02:00,84.0,63.0,-100.00,East,96,2.0,9.0,50,0.00,,,0.00,398.000000,,2013-08-28 18:02:00,
2013-08-28 13:12:00,84.0,63.0,-100.00,East,96,2.0,9.0,50,0.00,,,0.00,398.000000,,2013-08-28 18:12:00,
2013-08-28 13:42:00,89.0,63.0,-100.00,SE,145,2.0,8.0,42,0.00,,,0.00,632.000000,,2013-08-28 18:42:00,
2013-08-28 13:53:00,89.0,63.0,-100.00,SE,145,2.0,8.0,42,0.00,,,0.00,632.000000,,2013-08-28 18:53:00,
2013-08-28 14:02:00,89.0,63.0,-100.00,SE,145,2.0,8.0,42,0.00,,,0.00,632.000000,,2013-08-28 19:02:00,
2013-08-28 14:12:00,89.0,63.0,-100.00,SE,145,2.0,8.0,42,0.00,,,0.00,632.000000,,2013-08-28 19:12:00,
2013-08-28 14:42:00,89.0,59.0,-100.00,SSE,147,2.0,8.0,37,0.00,,,0.00,550.000000,,2013-08-28 19:42:00,
2013-08-28 14:52:00,89.0,59.0,-100.00,SSE,147,2.0,8.0,37,0.00,,,0.00,550.000000,,2013-08-28 19:52:00,
2013-08-28 15:03:00,89.0,59.0,-100.00,SSE,147,2.0,8.0,37,0.00,,,0.00,550.000000,,2013-08-28 20:03:00,
2013-08-28 15:12:00,89.0,59.0,-100.00,SSE,147,2.0,8.0,37,0.00,,,0.00,550.000000,,2013-08-28 20:12:00,
2013-08-28 15:43:00,88.0,61.0,-100.00,NE,54,4.0,8.0,40,0.00,,,0.00,380.000000,,2013-08-28 20:43:00,
2013-08-28 15:52:00,88.0,61.0,-100.00,NE,54,4.0,8.0,40,0.00,,,0.00,380.000000,,2013-08-28 20:52:00,
2013-08-28 16:01:00,88.0,61.0,-100.00,NE,54,4.0,8.0,40,0.00,,,0.00,380.000000,,2013-08-28 21:01:00,
2013-08-28 16:12:00,88.0,61.0,-100.00,NE,54,4.0,8.0,40,0.00,,,0.00,380.000000,,2013-08-28 21:12:00,
2013-08-28 16:15:00,84.0,64.0,-100.00,ENE,65,2.0,8.0,51,0.00,,,0.00,161.000000,,2013-08-28 21:15:00,
2013-08-28 16:44:00,84.0,64.0,-100.00,ENE,65,2.0,8.0,51,0.00,,,0.00,161.000000,,2013-08-28 21:44:00,
2013-08-28 16:57:00,84.0,64.0,-100.00,ENE,65,2.0,8.0,51,0.00,,,0.00,161.000000,,2013-08-28 21:57:00,
2013-08-28 17:08:00,84.0,64.0,-100.00,ENE,65,2.0,8.0,51,0.00,,,0.00,161.000000,,2013-08-28 22:08:00,
2013-08-28 17:43:00,83.0,64.0,-100.00,ENE,66,2.0,5.0,52,0.00,,,0.00,109.000000,,2013-08-28 22:43:00,
2013-08-28 17:54:00,83.0,64.0,-100.00,ENE,66,2.0,5.0,52,0.00,,,0.00,109.000000,,2013-08-28 22:54:00,
2013-08-28 18:03:00,83.0,64.0,-100.00,ENE,66,2.0,5.0,52,0.00,,,0.00,109.000000,,2013-08-28 23:03:00,
2013-08-28 18:13:00,83.0,64.0,-100.00,ENE,66,2.0,5.0,52,0.00,,,0.00,109.000000,,2013-08-28 23:13:00,
2013-08-28 18:42:00,82.0,64.0,-100.00,ESE,117,2.0,6.0,54,0.00,,,0.00,108.000000,,2013-08-28 23:42:00,
2013-08-28 18:53:00,82.0,64.0,-100.00,ESE,117,2.0,6.0,54,0.00,,,0.00,108.000000,,2013-08-28 23:53:00,
2013-08-28 19:03:00,82.0,64.0,-100.00,ESE,117,2.0,6.0,54,0.00,,,0.00,108.000000,,2013-08-29 00:03:00,
2013-08-28 19:11:00,82.0,64.0,-100.00,ESE,117,2.0,6.0,54,0.00,,,0.00,108.000000,,2013-08-29 00:11:00,
2013-08-28 20:04:00,80.0,63.0,-100.00,ENE,58,1.0,7.0,56,0.00,,,0.00,58.000000,,2013-08-29 01:04:00,
2013-08-28 20:12:00,80.0,63.0,-100.00,ENE,58,1.0,7.0,56,0.00,,,0.00,58.000000,,2013-08-29 01:12:00,
2013-08-28 20:42:00,76.0,67.0,-100.00,NNE,18,0.0,2.0,73,0.00,,,0.00,20.000000,,2013-08-29 01:42:00,
2013-08-28 20:52:00,76.0,67.0,-100.00,NNE,18,0.0,2.0,73,0.00,,,0.00,20.000000,,2013-08-29 01:52:00,
2013-08-28 21:03:00,76.0,67.0,-100.00,NNE,18,0.0,2.0,73,0.00,,,0.00,20.000000,,2013-08-29 02:03:00,
2013-08-28 21:11:00,76.0,67.0,-100.00,NNE,18,0.0,2.0,73,0.00,,,0.00,20.000000,,2013-08-29 02:11:00,
2013-08-28 21:52:00,73.0,68.0,-100.00,NNE,20,0.0,2.0,84,0.00,,,0.00,0.000000,,2013-08-29 02:52:00,
2013-08-28 22:02:00,73.0,68.0,-100.00,NNE,20,0.0,2.0,84,0.00,,,0.00,0.000000,,2013-08-29 03:02:00,
2013-08-28 22:11:00,73.0,68.0,-100.00,NNE,20,0.0,2.0,84,0.00,,,0.00,0.000000,,2013-08-29 03:11:00,
2013-08-28 22:15:00,70.0,66.0,-100.00,NE,41,0.0,2.0,86,0.00,,,0.00,0.000000,,2013-08-29 03:15:00,
2013-08-28 22:45:00,70.0,66.0,-100.00,NE,41,0.0,2.0,86,0.00,,,0.00,0.000000,,2013-08-29 03:45:00,
2013-08-28 22:57:00,70.0,66.0,-100.00,NE,41,0.0,2.0,86,0.00,,,0.00,0.000000,,2013-08-29 03:57:00,
2013-08-28 23:08:00,70.0,66.0,-100.00,NE,41,0.0,2.0,86,0.00,,,0.00,0.000000,,2013-08-29 04:08:00,
2013-08-28 23:46:00,68.0,65.0,-100.00,NE,50,0.0,1.0,89,0.00,,,0.00,0.000000,,2013-08-29 04:46:00,
2013-08-28 23:54:00,68.0,65.0,-100.00,NE,50,0.0,1.0,89,0.00,,,0.00,0.000000,,2013-08-29 04:54:00,